sensor_id;sensor_type;location;lat;lon;timestamp;P1;durP1;ratioP1;P2;durP2;ratioP2
37793;SDS011;23632;48.826;15.176;2022-07-12T00:02:09;0.50;;;0.50;;
37793;SDS011;23632;48.826;15.176;2022-07-12T00:04:36;0.60;;;0.60;;
37793;SDS011;23632;48.826;15.176;2022-07-12T00:07:04;0.60;;;0.60;;
37793;SDS011;23632;48.826;15.176;2022-07-12T00:09:32;0.40;;;0.40;;
37793;SDS011;23632;48.826;15.176;2022-07-12T00:11:59;0.75;;;0.75;;
37793;SDS011;23632;48.826;15.176;2022-07-12T00:14:26;0.60;;;0.60;;
37793;SDS011;23632;48.826;15.176;2022-07-12T00:16:53;0.52;;;0.52;;
37793;SDS011;23632;48.826;15.176;2022-07-12T00:19:20;0.50;;;0.50;;
37793;SDS011;23632;48.826;15.176;2022-07-12T00:21:47;0.70;;;0.70;;
37793;SDS011;23632;48.826;15.176;2022-07-12T00:24:14;0.50;;;0.50;;
37793;SDS011;23632;48.826;15.176;2022-07-12T00:26:42;0.40;;;0.40;;
37793;SDS011;23632;48.826;15.176;2022-07-12T00:29:09;0.60;;;0.60;;
37793;SDS011;23632;48.826;15.176;2022-07-12T00:31:36;0.70;;;0.70;;
37793;SDS011;23632;48.826;15.176;2022-07-12T00:34:03;0.50;;;0.50;;
37793;SDS011;23632;48.826;15.176;2022-07-12T00:36:30;0.50;;;0.50;;
37793;SDS011;23632;48.826;15.176;2022-07-12T00:38:58;0.50;;;0.50;;
37793;SDS011;23632;48.826;15.176;2022-07-12T00:41:25;0.60;;;0.60;;
37793;SDS011;23632;48.826;15.176;2022-07-12T00:43:52;0.50;;;0.50;;
37793;SDS011;23632;48.826;15.176;2022-07-12T00:46:21;0.50;;;0.50;;
37793;SDS011;23632;48.826;15.176;2022-07-12T00:48:50;0.50;;;0.50;;
37793;SDS011;23632;48.826;15.176;2022-07-12T00:51:18;0.70;;;0.70;;
37793;SDS011;23632;48.826;15.176;2022-07-12T00:53:45;0.60;;;0.60;;
37793;SDS011;23632;48.826;15.176;2022-07-12T00:56:13;0.63;;;0.63;;
37793;SDS011;23632;48.826;15.176;2022-07-12T00:58:41;0.60;;;0.60;;
37793;SDS011;23632;48.826;15.176;2022-07-12T01:01:10;0.50;;;0.50;;
37793;SDS011;23632;48.826;15.176;2022-07-12T01:03:37;0.50;;;0.50;;
37793;SDS011;23632;48.826;15.176;2022-07-12T01:06:06;0.50;;;0.50;;
37793;SDS011;23632;48.826;15.176;2022-07-12T01:08:34;0.50;;;0.50;;
37793;SDS011;23632;48.826;15.176;2022-07-12T01:11:01;0.50;;;0.50;;
37793;SDS011;23632;48.826;15.176;2022-07-12T01:13:29;0.50;;;0.50;;
37793;SDS011;23632;48.826;15.176;2022-07-12T01:15:57;0.60;;;0.60;;
37793;SDS011;23632;48.826;15.176;2022-07-12T01:18:24;0.70;;;0.70;;
37793;SDS011;23632;48.826;15.176;2022-07-12T01:20:54;0.50;;;0.50;;
37793;SDS011;23632;48.826;15.176;2022-07-12T01:23:25;0.50;;;0.50;;
37793;SDS011;23632;48.826;15.176;2022-07-12T01:25:52;0.50;;;0.50;;
37793;SDS011;23632;48.826;15.176;2022-07-12T01:28:24;0.63;;;0.63;;
37793;SDS011;23632;48.826;15.176;2022-07-12T01:30:51;0.50;;;0.50;;
37793;SDS011;23632;48.826;15.176;2022-07-12T01:33:19;0.50;;;0.50;;
37793;SDS011;23632;48.826;15.176;2022-07-12T01:35:46;0.50;;;0.50;;
37793;SDS011;23632;48.826;15.176;2022-07-12T01:38:14;0.50;;;0.50;;
37793;SDS011;23632;48.826;15.176;2022-07-12T01:40:42;0.60;;;0.60;;
37793;SDS011;23632;48.826;15.176;2022-07-12T01:43:10;0.50;;;0.50;;
37793;SDS011;23632;48.826;15.176;2022-07-12T01:45:37;0.50;;;0.50;;
37793;SDS011;23632;48.826;15.176;2022-07-12T01:48:05;0.50;;;0.50;;
37793;SDS011;23632;48.826;15.176;2022-07-12T01:50:32;0.70;;;0.70;;
37793;SDS011;23632;48.826;15.176;2022-07-12T01:53:00;0.50;;;0.50;;
37793;SDS011;23632;48.826;15.176;2022-07-12T01:55:28;0.70;;;0.70;;
37793;SDS011;23632;48.826;15.176;2022-07-12T01:57:56;0.50;;;0.50;;
37793;SDS011;23632;48.826;15.176;2022-07-12T02:00:24;0.50;;;0.50;;
37793;SDS011;23632;48.826;15.176;2022-07-12T02:02:52;0.50;;;0.50;;
37793;SDS011;23632;48.826;15.176;2022-07-12T02:05:19;0.60;;;0.60;;
37793;SDS011;23632;48.826;15.176;2022-07-12T02:07:47;0.50;;;0.50;;
37793;SDS011;23632;48.826;15.176;2022-07-12T02:10:15;0.60;;;0.60;;
37793;SDS011;23632;48.826;15.176;2022-07-12T02:12:42;0.50;;;0.50;;
37793;SDS011;23632;48.826;15.176;2022-07-12T02:15:09;0.50;;;0.50;;
37793;SDS011;23632;48.826;15.176;2022-07-12T02:17:37;0.60;;;0.60;;
37793;SDS011;23632;48.826;15.176;2022-07-12T02:20:04;0.50;;;0.50;;
37793;SDS011;23632;48.826;15.176;2022-07-12T02:22:32;0.50;;;0.50;;
37793;SDS011;23632;48.826;15.176;2022-07-12T02:25:00;0.50;;;0.50;;
37793;SDS011;23632;48.826;15.176;2022-07-12T02:27:27;0.50;;;0.50;;
37793;SDS011;23632;48.826;15.176;2022-07-12T02:29:54;0.50;;;0.50;;
37793;SDS011;23632;48.826;15.176;2022-07-12T02:32:23;0.63;;;0.63;;
37793;SDS011;23632;48.826;15.176;2022-07-12T02:34:50;0.50;;;0.50;;
37793;SDS011;23632;48.826;15.176;2022-07-12T02:37:17;0.50;;;0.50;;
37793;SDS011;23632;48.826;15.176;2022-07-12T02:39:44;0.50;;;0.50;;
37793;SDS011;23632;48.826;15.176;2022-07-12T02:42:11;0.50;;;0.50;;
37793;SDS011;23632;48.826;15.176;2022-07-12T02:44:38;0.50;;;0.50;;
37793;SDS011;23632;48.826;15.176;2022-07-12T02:47:06;0.45;;;0.45;;
37793;SDS011;23632;48.826;15.176;2022-07-12T02:49:34;0.63;;;0.63;;
37793;SDS011;23632;48.826;15.176;2022-07-12T02:52:01;0.60;;;0.60;;
37793;SDS011;23632;48.826;15.176;2022-07-12T02:54:28;0.40;;;0.40;;
37793;SDS011;23632;48.826;15.176;2022-07-12T02:56:55;0.50;;;0.50;;
37793;SDS011;23632;48.826;15.176;2022-07-12T02:59:22;0.57;;;0.57;;
37793;SDS011;23632;48.826;15.176;2022-07-12T03:01:50;0.50;;;0.50;;
37793;SDS011;23632;48.826;15.176;2022-07-12T03:04:18;0.50;;;0.50;;
37793;SDS011;23632;48.826;15.176;2022-07-12T03:06:45;0.40;;;0.40;;
37793;SDS011;23632;48.826;15.176;2022-07-12T03:09:12;0.52;;;0.52;;
37793;SDS011;23632;48.826;15.176;2022-07-12T03:11:39;0.57;;;0.57;;
37793;SDS011;23632;48.826;15.176;2022-07-12T03:14:06;0.40;;;0.40;;
37793;SDS011;23632;48.826;15.176;2022-07-12T03:16:33;0.50;;;0.50;;
37793;SDS011;23632;48.826;15.176;2022-07-12T03:19:00;0.60;;;0.60;;
37793;SDS011;23632;48.826;15.176;2022-07-12T03:21:27;0.70;;;0.70;;
37793;SDS011;23632;48.826;15.176;2022-07-12T03:23:55;0.60;;;0.60;;
37793;SDS011;23632;48.826;15.176;2022-07-12T03:26:22;0.60;;;0.60;;
37793;SDS011;23632;48.826;15.176;2022-07-12T03:28:49;0.70;;;0.70;;
37793;SDS011;23632;48.826;15.176;2022-07-12T03:31:16;0.50;;;0.50;;
37793;SDS011;23632;48.826;15.176;2022-07-12T03:33:44;0.50;;;0.50;;
37793;SDS011;23632;48.826;15.176;2022-07-12T03:36:11;0.60;;;0.60;;
37793;SDS011;23632;48.826;15.176;2022-07-12T03:38:39;0.60;;;0.60;;
37793;SDS011;23632;48.826;15.176;2022-07-12T03:41:07;0.65;;;0.65;;
37793;SDS011;23632;48.826;15.176;2022-07-12T03:43:34;0.50;;;0.50;;
37793;SDS011;23632;48.826;15.176;2022-07-12T03:46:01;0.50;;;0.50;;
37793;SDS011;23632;48.826;15.176;2022-07-12T03:48:29;0.60;;;0.60;;
37793;SDS011;23632;48.826;15.176;2022-07-12T03:50:56;0.50;;;0.50;;
37793;SDS011;23632;48.826;15.176;2022-07-12T03:53:23;0.50;;;0.50;;
37793;SDS011;23632;48.826;15.176;2022-07-12T03:55:51;0.50;;;0.50;;
37793;SDS011;23632;48.826;15.176;2022-07-12T03:58:18;0.70;;;0.70;;
37793;SDS011;23632;48.826;15.176;2022-07-12T04:00:46;0.60;;;0.60;;
37793;SDS011;23632;48.826;15.176;2022-07-12T04:03:13;0.50;;;0.50;;
37793;SDS011;23632;48.826;15.176;2022-07-12T04:05:40;0.50;;;0.50;;
37793;SDS011;23632;48.826;15.176;2022-07-12T04:08:08;0.50;;;0.50;;
37793;SDS011;23632;48.826;15.176;2022-07-12T04:10:35;0.50;;;0.50;;
37793;SDS011;23632;48.826;15.176;2022-07-12T04:13:03;0.52;;;0.52;;
37793;SDS011;23632;48.826;15.176;2022-07-12T04:15:30;0.50;;;0.50;;
37793;SDS011;23632;48.826;15.176;2022-07-12T04:17:57;0.50;;;0.50;;
37793;SDS011;23632;48.826;15.176;2022-07-12T04:20:25;0.60;;;0.60;;
37793;SDS011;23632;48.826;15.176;2022-07-12T04:22:52;0.50;;;0.50;;
37793;SDS011;23632;48.826;15.176;2022-07-12T04:25:20;0.50;;;0.50;;
37793;SDS011;23632;48.826;15.176;2022-07-12T04:27:47;0.50;;;0.50;;
37793;SDS011;23632;48.826;15.176;2022-07-12T04:30:14;0.50;;;0.50;;
37793;SDS011;23632;48.826;15.176;2022-07-12T04:32:41;0.50;;;0.50;;
37793;SDS011;23632;48.826;15.176;2022-07-12T04:35:09;0.50;;;0.50;;
37793;SDS011;23632;48.826;15.176;2022-07-12T04:37:36;0.50;;;0.50;;
37793;SDS011;23632;48.826;15.176;2022-07-12T04:40:03;0.50;;;0.50;;
37793;SDS011;23632;48.826;15.176;2022-07-12T04:42:30;0.40;;;0.40;;
37793;SDS011;23632;48.826;15.176;2022-07-12T04:44:59;0.60;;;0.60;;
37793;SDS011;23632;48.826;15.176;2022-07-12T04:47:26;0.50;;;0.50;;
37793;SDS011;23632;48.826;15.176;2022-07-12T04:49:53;0.50;;;0.50;;
37793;SDS011;23632;48.826;15.176;2022-07-12T04:52:20;0.50;;;0.50;;
37793;SDS011;23632;48.826;15.176;2022-07-12T04:54:48;0.50;;;0.50;;
37793;SDS011;23632;48.826;15.176;2022-07-12T04:57:15;0.50;;;0.50;;
37793;SDS011;23632;48.826;15.176;2022-07-12T04:59:42;0.55;;;0.55;;
37793;SDS011;23632;48.826;15.176;2022-07-12T05:02:09;0.52;;;0.52;;
37793;SDS011;23632;48.826;15.176;2022-07-12T05:04:36;0.50;;;0.50;;
37793;SDS011;23632;48.826;15.176;2022-07-12T05:07:03;0.50;;;0.50;;
37793;SDS011;23632;48.826;15.176;2022-07-12T05:09:30;0.50;;;0.50;;
37793;SDS011;23632;48.826;15.176;2022-07-12T05:11:58;0.50;;;0.50;;
37793;SDS011;23632;48.826;15.176;2022-07-12T05:14:25;0.50;;;0.50;;
37793;SDS011;23632;48.826;15.176;2022-07-12T05:16:52;0.50;;;0.50;;
37793;SDS011;23632;48.826;15.176;2022-07-12T05:19:19;0.50;;;0.50;;
37793;SDS011;23632;48.826;15.176;2022-07-12T05:21:47;0.47;;;0.47;;
37793;SDS011;23632;48.826;15.176;2022-07-12T05:24:14;0.40;;;0.40;;
37793;SDS011;23632;48.826;15.176;2022-07-12T05:26:42;0.40;;;0.40;;
37793;SDS011;23632;48.826;15.176;2022-07-12T05:29:09;0.43;;;0.43;;
37793;SDS011;23632;48.826;15.176;2022-07-12T05:31:37;0.40;;;0.40;;
37793;SDS011;23632;48.826;15.176;2022-07-12T05:34:04;0.55;;;0.55;;
37793;SDS011;23632;48.826;15.176;2022-07-12T05:36:31;0.50;;;0.50;;
37793;SDS011;23632;48.826;15.176;2022-07-12T05:38:58;0.45;;;0.45;;
37793;SDS011;23632;48.826;15.176;2022-07-12T05:41:25;0.60;;;0.60;;
37793;SDS011;23632;48.826;15.176;2022-07-12T05:43:53;0.52;;;0.52;;
37793;SDS011;23632;48.826;15.176;2022-07-12T05:46:20;0.50;;;0.50;;
37793;SDS011;23632;48.826;15.176;2022-07-12T05:48:47;0.50;;;0.50;;
37793;SDS011;23632;48.826;15.176;2022-07-12T05:51:14;0.47;;;0.47;;
37793;SDS011;23632;48.826;15.176;2022-07-12T05:54:00;0.50;;;0.50;;
37793;SDS011;23632;48.826;15.176;2022-07-12T05:56:27;0.50;;;0.50;;
37793;SDS011;23632;48.826;15.176;2022-07-12T05:58:55;0.50;;;0.50;;
37793;SDS011;23632;48.826;15.176;2022-07-12T06:01:22;0.40;;;0.40;;
37793;SDS011;23632;48.826;15.176;2022-07-12T06:03:49;0.40;;;0.40;;
37793;SDS011;23632;48.826;15.176;2022-07-12T06:06:17;0.40;;;0.40;;
37793;SDS011;23632;48.826;15.176;2022-07-12T06:08:44;0.40;;;0.40;;
37793;SDS011;23632;48.826;15.176;2022-07-12T06:11:12;0.43;;;0.43;;
37793;SDS011;23632;48.826;15.176;2022-07-12T06:13:39;0.40;;;0.40;;
37793;SDS011;23632;48.826;15.176;2022-07-12T06:16:06;0.40;;;0.40;;
37793;SDS011;23632;48.826;15.176;2022-07-12T06:18:34;0.50;;;0.50;;
37793;SDS011;23632;48.826;15.176;2022-07-12T06:21:01;0.40;;;0.40;;
37793;SDS011;23632;48.826;15.176;2022-07-12T06:23:28;0.40;;;0.40;;
37793;SDS011;23632;48.826;15.176;2022-07-12T06:25:56;0.43;;;0.43;;
37793;SDS011;23632;48.826;15.176;2022-07-12T06:28:23;0.40;;;0.40;;
37793;SDS011;23632;48.826;15.176;2022-07-12T06:30:51;0.52;;;0.52;;
37793;SDS011;23632;48.826;15.176;2022-07-12T06:33:18;0.43;;;0.43;;
37793;SDS011;23632;48.826;15.176;2022-07-12T06:35:45;0.35;;;0.35;;
37793;SDS011;23632;48.826;15.176;2022-07-12T06:38:12;0.50;;;0.50;;
37793;SDS011;23632;48.826;15.176;2022-07-12T06:40:39;0.47;;;0.47;;
37793;SDS011;23632;48.826;15.176;2022-07-12T06:43:10;0.40;;;0.40;;
37793;SDS011;23632;48.826;15.176;2022-07-12T06:45:38;0.40;;;0.40;;
37793;SDS011;23632;48.826;15.176;2022-07-12T06:48:06;0.45;;;0.45;;
37793;SDS011;23632;48.826;15.176;2022-07-12T06:50:33;0.43;;;0.43;;
37793;SDS011;23632;48.826;15.176;2022-07-12T06:53:00;0.50;;;0.50;;
37793;SDS011;23632;48.826;15.176;2022-07-12T06:55:28;0.40;;;0.40;;
37793;SDS011;23632;48.826;15.176;2022-07-12T06:57:56;0.40;;;0.40;;
37793;SDS011;23632;48.826;15.176;2022-07-12T07:00:24;0.40;;;0.40;;
37793;SDS011;23632;48.826;15.176;2022-07-12T07:02:51;0.40;;;0.40;;
37793;SDS011;23632;48.826;15.176;2022-07-12T07:05:19;0.50;;;0.50;;
37793;SDS011;23632;48.826;15.176;2022-07-12T07:07:46;0.40;;;0.40;;
37793;SDS011;23632;48.826;15.176;2022-07-12T07:10:14;0.45;;;0.45;;
37793;SDS011;23632;48.826;15.176;2022-07-12T07:12:41;0.50;;;0.50;;
37793;SDS011;23632;48.826;15.176;2022-07-12T07:15:08;0.40;;;0.40;;
37793;SDS011;23632;48.826;15.176;2022-07-12T07:17:36;0.40;;;0.40;;
37793;SDS011;23632;48.826;15.176;2022-07-12T07:20:04;0.40;;;0.40;;
37793;SDS011;23632;48.826;15.176;2022-07-12T07:22:32;0.30;;;0.30;;
37793;SDS011;23632;48.826;15.176;2022-07-12T07:24:58;0.40;;;0.40;;
37793;SDS011;23632;48.826;15.176;2022-07-12T07:27:25;0.40;;;0.40;;
37793;SDS011;23632;48.826;15.176;2022-07-12T07:29:53;0.40;;;0.40;;
37793;SDS011;23632;48.826;15.176;2022-07-12T07:32:39;0.40;;;0.40;;
37793;SDS011;23632;48.826;15.176;2022-07-12T07:35:06;0.40;;;0.40;;
37793;SDS011;23632;48.826;15.176;2022-07-12T07:37:34;0.40;;;0.40;;
37793;SDS011;23632;48.826;15.176;2022-07-12T07:40:01;0.40;;;0.40;;
37793;SDS011;23632;48.826;15.176;2022-07-12T07:42:29;0.40;;;0.40;;
37793;SDS011;23632;48.826;15.176;2022-07-12T07:44:56;0.40;;;0.40;;
37793;SDS011;23632;48.826;15.176;2022-07-12T07:47:43;0.40;;;0.40;;
37793;SDS011;23632;48.826;15.176;2022-07-12T07:50:35;0.40;;;0.40;;
37793;SDS011;23632;48.826;15.176;2022-07-12T07:53:03;0.40;;;0.40;;
37793;SDS011;23632;48.826;15.176;2022-07-12T07:55:31;0.30;;;0.30;;
37793;SDS011;23632;48.826;15.176;2022-07-12T07:57:58;0.43;;;0.43;;
37793;SDS011;23632;48.826;15.176;2022-07-12T08:00:27;0.50;;;0.50;;
37793;SDS011;23632;48.826;15.176;2022-07-12T08:02:55;0.30;;;0.30;;
37793;SDS011;23632;48.826;15.176;2022-07-12T08:05:22;0.40;;;0.40;;
37793;SDS011;23632;48.826;15.176;2022-07-12T08:07:54;0.40;;;0.40;;
37793;SDS011;23632;48.826;15.176;2022-07-12T08:10:23;0.40;;;0.40;;
37793;SDS011;23632;48.826;15.176;2022-07-12T08:12:51;0.40;;;0.40;;
37793;SDS011;23632;48.826;15.176;2022-07-12T08:15:18;0.30;;;0.30;;
37793;SDS011;23632;48.826;15.176;2022-07-12T08:17:45;0.38;;;0.38;;
37793;SDS011;23632;48.826;15.176;2022-07-12T08:20:19;0.43;;;0.43;;
37793;SDS011;23632;48.826;15.176;2022-07-12T08:23:08;0.40;;;0.40;;
37793;SDS011;23632;48.826;15.176;2022-07-12T08:25:36;0.30;;;0.30;;
37793;SDS011;23632;48.826;15.176;2022-07-12T08:28:03;0.30;;;0.30;;
37793;SDS011;23632;48.826;15.176;2022-07-12T08:30:30;0.40;;;0.40;;
37793;SDS011;23632;48.826;15.176;2022-07-12T08:32:57;0.40;;;0.40;;
37793;SDS011;23632;48.826;15.176;2022-07-12T08:35:24;0.50;;;0.50;;
37793;SDS011;23632;48.826;15.176;2022-07-12T08:37:51;0.40;;;0.40;;
37793;SDS011;23632;48.826;15.176;2022-07-12T08:40:20;0.40;;;0.40;;
37793;SDS011;23632;48.826;15.176;2022-07-12T08:42:47;0.40;;;0.40;;
37793;SDS011;23632;48.826;15.176;2022-07-12T08:45:15;0.30;;;0.30;;
37793;SDS011;23632;48.826;15.176;2022-07-12T08:47:42;0.40;;;0.40;;
37793;SDS011;23632;48.826;15.176;2022-07-12T08:50:17;0.40;;;0.40;;
37793;SDS011;23632;48.826;15.176;2022-07-12T08:52:46;0.30;;;0.30;;
37793;SDS011;23632;48.826;15.176;2022-07-12T08:58:03;0.40;;;0.40;;
37793;SDS011;23632;48.826;15.176;2022-07-12T09:00:33;0.40;;;0.40;;
37793;SDS011;23632;48.826;15.176;2022-07-12T09:03:02;0.40;;;0.40;;
37793;SDS011;23632;48.826;15.176;2022-07-12T09:05:31;0.40;;;0.40;;
37793;SDS011;23632;48.826;15.176;2022-07-12T09:08:04;0.30;;;0.30;;
37793;SDS011;23632;48.826;15.176;2022-07-12T09:10:51;0.40;;;0.40;;
37793;SDS011;23632;48.826;15.176;2022-07-12T09:13:44;0.30;;;0.30;;
37793;SDS011;23632;48.826;15.176;2022-07-12T09:16:23;0.30;;;0.30;;
37793;SDS011;23632;48.826;15.176;2022-07-12T09:21:45;0.40;;;0.40;;
37793;SDS011;23632;48.826;15.176;2022-07-12T09:24:23;0.28;;;0.28;;
37793;SDS011;23632;48.826;15.176;2022-07-12T09:27:02;0.30;;;0.30;;
37793;SDS011;23632;48.826;15.176;2022-07-12T09:29:31;0.43;;;0.43;;
37793;SDS011;23632;48.826;15.176;2022-07-12T09:31:59;0.35;;;0.35;;
37793;SDS011;23632;48.826;15.176;2022-07-12T09:34:58;0.43;;;0.43;;
37793;SDS011;23632;48.826;15.176;2022-07-12T09:37:44;0.40;;;0.40;;
37793;SDS011;23632;48.826;15.176;2022-07-12T09:40:12;0.55;;;0.55;;
37793;SDS011;23632;48.826;15.176;2022-07-12T09:42:40;0.30;;;0.30;;
37793;SDS011;23632;48.826;15.176;2022-07-12T09:45:08;0.40;;;0.40;;
37793;SDS011;23632;48.826;15.176;2022-07-12T09:47:37;0.50;;;0.50;;
37793;SDS011;23632;48.826;15.176;2022-07-12T09:50:04;0.40;;;0.40;;
37793;SDS011;23632;48.826;15.176;2022-07-12T09:52:38;0.40;;;0.40;;
37793;SDS011;23632;48.826;15.176;2022-07-12T09:55:09;0.30;;;0.30;;
37793;SDS011;23632;48.826;15.176;2022-07-12T09:57:39;0.40;;;0.40;;
37793;SDS011;23632;48.826;15.176;2022-07-12T10:00:08;0.30;;;0.30;;
37793;SDS011;23632;48.826;15.176;2022-07-12T10:02:37;0.30;;;0.30;;
37793;SDS011;23632;48.826;15.176;2022-07-12T10:05:07;0.30;;;0.30;;
37793;SDS011;23632;48.826;15.176;2022-07-12T10:07:37;0.30;;;0.30;;
37793;SDS011;23632;48.826;15.176;2022-07-12T10:10:05;0.30;;;0.30;;
37793;SDS011;23632;48.826;15.176;2022-07-12T10:12:35;0.60;;;0.60;;
37793;SDS011;23632;48.826;15.176;2022-07-12T10:15:03;0.30;;;0.30;;
37793;SDS011;23632;48.826;15.176;2022-07-12T10:17:36;0.30;;;0.30;;
37793;SDS011;23632;48.826;15.176;2022-07-12T10:22:54;0.30;;;0.30;;
37793;SDS011;23632;48.826;15.176;2022-07-12T10:25:39;0.40;;;0.40;;
37793;SDS011;23632;48.826;15.176;2022-07-12T10:28:06;0.30;;;0.30;;
37793;SDS011;23632;48.826;15.176;2022-07-12T10:30:43;0.30;;;0.30;;
37793;SDS011;23632;48.826;15.176;2022-07-12T10:33:15;0.50;;;0.50;;
37793;SDS011;23632;48.826;15.176;2022-07-12T10:38:26;0.28;;;0.28;;
37793;SDS011;23632;48.826;15.176;2022-07-12T10:40:55;0.30;;;0.30;;
37793;SDS011;23632;48.826;15.176;2022-07-12T10:43:26;0.35;;;0.35;;
37793;SDS011;23632;48.826;15.176;2022-07-12T10:46:17;0.50;;;0.50;;
37793;SDS011;23632;48.826;15.176;2022-07-12T10:48:50;0.55;;;0.55;;
37793;SDS011;23632;48.826;15.176;2022-07-12T10:51:18;0.40;;;0.40;;
37793;SDS011;23632;48.826;15.176;2022-07-12T10:53:48;0.32;;;0.32;;
37793;SDS011;23632;48.826;15.176;2022-07-12T10:56:23;0.30;;;0.30;;
37793;SDS011;23632;48.826;15.176;2022-07-12T10:58:59;0.30;;;0.30;;
37793;SDS011;23632;48.826;15.176;2022-07-12T11:01:30;0.30;;;0.30;;
37793;SDS011;23632;48.826;15.176;2022-07-12T11:04:05;0.20;;;0.20;;
37793;SDS011;23632;48.826;15.176;2022-07-12T11:06:38;0.30;;;0.30;;
37793;SDS011;23632;48.826;15.176;2022-07-12T11:09:10;0.32;;;0.32;;
37793;SDS011;23632;48.826;15.176;2022-07-12T11:11:40;0.30;;;0.30;;
37793;SDS011;23632;48.826;15.176;2022-07-12T11:14:25;0.40;;;0.40;;
37793;SDS011;23632;48.826;15.176;2022-07-12T11:17:00;0.30;;;0.30;;
37793;SDS011;23632;48.826;15.176;2022-07-12T11:19:28;0.50;;;0.50;;
37793;SDS011;23632;48.826;15.176;2022-07-12T11:21:57;0.40;;;0.40;;
37793;SDS011;23632;48.826;15.176;2022-07-12T11:24:26;0.38;;;0.38;;
37793;SDS011;23632;48.826;15.176;2022-07-12T11:26:55;0.60;;;0.60;;
37793;SDS011;23632;48.826;15.176;2022-07-12T11:29:23;0.40;;;0.40;;
37793;SDS011;23632;48.826;15.176;2022-07-12T11:32:02;0.38;;;0.38;;
37793;SDS011;23632;48.826;15.176;2022-07-12T11:34:37;0.30;;;0.30;;
37793;SDS011;23632;48.826;15.176;2022-07-12T11:37:05;0.30;;;0.30;;
37793;SDS011;23632;48.826;15.176;2022-07-12T11:39:33;0.20;;;0.20;;
37793;SDS011;23632;48.826;15.176;2022-07-12T11:42:01;0.40;;;0.40;;
37793;SDS011;23632;48.826;15.176;2022-07-12T11:44:50;0.30;;;0.30;;
37793;SDS011;23632;48.826;15.176;2022-07-12T11:47:19;0.30;;;0.30;;
37793;SDS011;23632;48.826;15.176;2022-07-12T11:49:50;0.30;;;0.30;;
37793;SDS011;23632;48.826;15.176;2022-07-12T11:52:21;0.30;;;0.30;;
37793;SDS011;23632;48.826;15.176;2022-07-12T11:54:50;0.40;;;0.40;;
37793;SDS011;23632;48.826;15.176;2022-07-12T11:57:20;0.30;;;0.30;;
37793;SDS011;23632;48.826;15.176;2022-07-12T11:59:50;0.30;;;0.30;;
37793;SDS011;23632;48.826;15.176;2022-07-12T12:02:17;0.30;;;0.30;;
37793;SDS011;23632;48.826;15.176;2022-07-12T12:07:15;0.28;;;0.28;;
37793;SDS011;23632;48.826;15.176;2022-07-12T12:15:23;0.20;;;0.20;;
37793;SDS011;23632;48.826;15.176;2022-07-12T12:17:56;0.28;;;0.28;;
37793;SDS011;23632;48.826;15.176;2022-07-12T12:20:29;0.30;;;0.30;;
37793;SDS011;23632;48.826;15.176;2022-07-12T12:23:06;0.30;;;0.30;;
37793;SDS011;23632;48.826;15.176;2022-07-12T12:25:44;0.20;;;0.20;;
37793;SDS011;23632;48.826;15.176;2022-07-12T12:28:20;0.30;;;0.30;;
37793;SDS011;23632;48.826;15.176;2022-07-12T12:30:55;0.25;;;0.25;;
37793;SDS011;23632;48.826;15.176;2022-07-12T12:33:36;0.20;;;0.20;;
37793;SDS011;23632;48.826;15.176;2022-07-12T12:38:52;0.40;;;0.40;;
37793;SDS011;23632;48.826;15.176;2022-07-12T12:41:23;0.30;;;0.30;;
37793;SDS011;23632;48.826;15.176;2022-07-12T12:43:57;0.30;;;0.30;;
37793;SDS011;23632;48.826;15.176;2022-07-12T12:49:46;0.30;;;0.30;;
37793;SDS011;23632;48.826;15.176;2022-07-12T12:52:27;0.20;;;0.20;;
37793;SDS011;23632;48.826;15.176;2022-07-12T12:54:57;0.30;;;0.30;;
37793;SDS011;23632;48.826;15.176;2022-07-12T12:57:24;0.20;;;0.20;;
37793;SDS011;23632;48.826;15.176;2022-07-12T12:59:52;0.20;;;0.20;;
37793;SDS011;23632;48.826;15.176;2022-07-12T13:02:20;0.20;;;0.20;;
37793;SDS011;23632;48.826;15.176;2022-07-12T13:04:49;0.30;;;0.30;;
37793;SDS011;23632;48.826;15.176;2022-07-12T13:07:16;0.20;;;0.20;;
37793;SDS011;23632;48.826;15.176;2022-07-12T13:09:44;0.30;;;0.30;;
37793;SDS011;23632;48.826;15.176;2022-07-12T13:12:11;0.30;;;0.30;;
37793;SDS011;23632;48.826;15.176;2022-07-12T13:14:38;0.20;;;0.20;;
37793;SDS011;23632;48.826;15.176;2022-07-12T13:17:05;0.30;;;0.30;;
37793;SDS011;23632;48.826;15.176;2022-07-12T13:19:33;0.30;;;0.30;;
37793;SDS011;23632;48.826;15.176;2022-07-12T13:22:00;0.30;;;0.30;;
37793;SDS011;23632;48.826;15.176;2022-07-12T13:24:27;0.20;;;0.20;;
37793;SDS011;23632;48.826;15.176;2022-07-12T13:26:54;0.30;;;0.30;;
37793;SDS011;23632;48.826;15.176;2022-07-12T13:29:21;0.20;;;0.20;;
37793;SDS011;23632;48.826;15.176;2022-07-12T13:31:49;0.30;;;0.30;;
37793;SDS011;23632;48.826;15.176;2022-07-12T13:34:21;0.30;;;0.30;;
37793;SDS011;23632;48.826;15.176;2022-07-12T13:36:49;0.20;;;0.20;;
37793;SDS011;23632;48.826;15.176;2022-07-12T13:39:17;0.30;;;0.30;;
37793;SDS011;23632;48.826;15.176;2022-07-12T13:42:03;0.30;;;0.30;;
37793;SDS011;23632;48.826;15.176;2022-07-12T13:44:31;0.25;;;0.25;;
37793;SDS011;23632;48.826;15.176;2022-07-12T13:46:58;0.30;;;0.30;;
37793;SDS011;23632;48.826;15.176;2022-07-12T13:49:25;0.30;;;0.30;;
37793;SDS011;23632;48.826;15.176;2022-07-12T13:51:52;0.30;;;0.30;;
37793;SDS011;23632;48.826;15.176;2022-07-12T13:54:19;0.30;;;0.30;;
37793;SDS011;23632;48.826;15.176;2022-07-12T13:56:47;0.32;;;0.32;;
37793;SDS011;23632;48.826;15.176;2022-07-12T13:59:14;0.40;;;0.40;;
37793;SDS011;23632;48.826;15.176;2022-07-12T14:01:42;0.30;;;0.30;;
37793;SDS011;23632;48.826;15.176;2022-07-12T14:04:09;0.30;;;0.30;;
37793;SDS011;23632;48.826;15.176;2022-07-12T14:06:37;0.30;;;0.30;;
37793;SDS011;23632;48.826;15.176;2022-07-12T14:09:04;0.20;;;0.20;;
37793;SDS011;23632;48.826;15.176;2022-07-12T14:11:31;0.30;;;0.30;;
37793;SDS011;23632;48.826;15.176;2022-07-12T14:13:59;0.28;;;0.28;;
37793;SDS011;23632;48.826;15.176;2022-07-12T14:16:26;0.30;;;0.30;;
37793;SDS011;23632;48.826;15.176;2022-07-12T14:18:53;0.20;;;0.20;;
37793;SDS011;23632;48.826;15.176;2022-07-12T14:21:20;0.20;;;0.20;;
37793;SDS011;23632;48.826;15.176;2022-07-12T14:23:47;0.20;;;0.20;;
37793;SDS011;23632;48.826;15.176;2022-07-12T14:26:15;0.30;;;0.30;;
37793;SDS011;23632;48.826;15.176;2022-07-12T14:28:42;0.20;;;0.20;;
37793;SDS011;23632;48.826;15.176;2022-07-12T14:31:09;0.30;;;0.30;;
37793;SDS011;23632;48.826;15.176;2022-07-12T14:33:36;0.30;;;0.30;;
37793;SDS011;23632;48.826;15.176;2022-07-12T14:36:04;0.20;;;0.20;;
37793;SDS011;23632;48.826;15.176;2022-07-12T14:38:31;0.20;;;0.20;;
37793;SDS011;23632;48.826;15.176;2022-07-12T14:40:58;0.30;;;0.30;;
37793;SDS011;23632;48.826;15.176;2022-07-12T14:43:25;0.20;;;0.20;;
37793;SDS011;23632;48.826;15.176;2022-07-12T14:45:52;0.20;;;0.20;;
37793;SDS011;23632;48.826;15.176;2022-07-12T14:48:19;0.20;;;0.20;;
37793;SDS011;23632;48.826;15.176;2022-07-12T14:50:46;0.20;;;0.20;;
37793;SDS011;23632;48.826;15.176;2022-07-12T14:53:19;0.20;;;0.20;;
37793;SDS011;23632;48.826;15.176;2022-07-12T14:55:46;0.30;;;0.30;;
37793;SDS011;23632;48.826;15.176;2022-07-12T14:58:13;0.30;;;0.30;;
37793;SDS011;23632;48.826;15.176;2022-07-12T15:00:41;0.40;;;0.40;;
37793;SDS011;23632;48.826;15.176;2022-07-12T15:03:09;0.20;;;0.20;;
37793;SDS011;23632;48.826;15.176;2022-07-12T15:05:36;0.30;;;0.30;;
37793;SDS011;23632;48.826;15.176;2022-07-12T15:08:06;0.25;;;0.25;;
37793;SDS011;23632;48.826;15.176;2022-07-12T15:10:34;0.30;;;0.30;;